Time;durP1;ratioP1;P1;durP2;ratioP2;P2;SDS_P1;SDS_P2;PMS_P1;PMS_P2;Temp;Humidity;BMP_temperature;BMP_pressure;BME280_temperature;BME280_humidity;BME280_pressure;Samples;Min_cycle;Max_cycle;Signal;HPM_P1;HPM_P2
2022/11/11 00:00:11;;;;;;;51.50;25.55;;;;;;;7.04;100.00;100280.50;1643137;85;20956;-79
2022/11/11 00:02:57;;;;;;;44.75;25.35;;;;;;;7.07;100.00;100279.95;1636831;85;21543;-80
2022/11/11 00:05:46;;;;;;;45.75;24.60;;;;;;;7.07;100.00;100285.97;1645947;86;21031;-78
2022/11/11 00:08:32;;;;;;;44.23;25.00;;;;;;;7.05;100.00;100288.97;1634098;86;20963;-79
2022/11/11 00:11:20;;;;;;;51.00;25.60;;;;;;;7.07;100.00;100292.79;1640925;85;21179;-79
2022/11/11 00:14:07;;;;;;;45.75;23.87;;;;;;;7.06;100.00;100294.70;1669184;85;21523;-79
2022/11/11 00:26:32;;;;;;;46.30;24.57;;;;;;;7.05;100.00;100299.89;1677633;84;21170;-80
2022/11/11 00:29:23;;;;;;;42.80;23.15;;;;;;;7.06;100.00;100302.89;1670949;84;21099;-80
2022/11/11 00:32:21;;;;;;;45.08;23.75;;;;;;;7.05;100.00;100307.26;1668051;84;21535;-79
2022/11/11 00:41:28;;;;;;;41.73;23.20;;;;;;;7.07;100.00;100309.17;1667957;85;21808;-77
2022/11/11 00:44:16;;;;;;;45.00;23.20;;;;;;;7.06;100.00;100308.35;1668834;85;21457;-77
2022/11/11 00:53:37;;;;;;;49.93;24.02;;;;;;;7.10;100.00;100301.25;1707531;83;21478;-76
2022/11/11 00:56:22;;;;;;;39.85;22.05;;;;;;;7.13;100.00;100303.44;1704192;82;21168;-77
2022/11/11 00:59:08;;;;;;;40.17;21.05;;;;;;;7.16;100.00;100302.06;1709381;82;21007;-76
2022/11/11 01:01:56;;;;;;;40.10;22.40;;;;;;;7.17;100.00;100299.61;1690947;83;20963;-77
2022/11/11 01:04:42;;;;;;;41.42;21.82;;;;;;;7.20;100.00;100306.70;1678658;84;20996;-76
2022/11/11 01:07:30;;;;;;;38.63;20.05;;;;;;;7.22;100.00;100306.43;1671228;85;21072;-75
2022/11/11 01:10:37;;;;;;;40.12;21.42;;;;;;;7.23;100.00;100308.88;1668559;86;21300;-75
2022/11/11 01:13:30;;;;;;;40.52;22.17;;;;;;;7.24;100.00;100312.44;1670852;85;20989;-76
2022/11/11 01:16:25;;;;;;;34.70;18.60;;;;;;;7.25;100.00;100316.26;1682602;83;20951;-75
2022/11/11 01:19:14;;;;;;;31.35;18.05;;;;;;;7.26;100.00;100313.80;1641107;86;20948;-77
2022/11/11 01:22:06;;;;;;;35.68;20.60;;;;;;;7.28;100.00;100317.63;1708195;83;20909;-76
2022/11/11 01:24:54;;;;;;;34.57;18.97;;;;;;;7.33;100.00;100311.33;1709706;82;21760;-76
2022/11/11 01:27:42;;;;;;;34.13;19.32;;;;;;;7.33;100.00;100310.78;1711502;82;21667;-76
2022/11/11 01:30:34;;;;;;;36.15;19.35;;;;;;;7.35;100.00;100320.07;1681834;83;20932;-76
2022/11/11 01:33:25;;;;;;;32.80;18.60;;;;;;;7.37;100.00;100321.43;1711113;82;21044;-77
2022/11/11 01:36:25;;;;;;;26.65;15.83;;;;;;;7.37;100.00;100319.25;1707163;83;20987;-77
2022/11/11 01:39:13;;;;;;;31.95;18.85;;;;;;;7.40;100.00;100322.80;1711457;82;21911;-78
2022/11/11 01:42:03;;;;;;;31.97;19.65;;;;;;;7.41;100.00;100318.97;1697089;83;20897;-77
2022/11/11 01:44:51;;;;;;;35.65;19.42;;;;;;;7.44;100.00;100322.52;1714552;82;21117;-77
2022/11/11 01:50:44;;;;;;;33.95;18.25;;;;;;;7.46;100.00;100313.50;1709395;83;21011;-79
2022/11/11 01:53:32;;;;;;;31.85;18.40;;;;;;;7.48;100.00;100322.23;1708396;83;21153;-79
2022/11/11 01:56:20;;;;;;;30.40;18.07;;;;;;;7.47;100.00;100324.15;1711084;83;21023;-78
2022/11/11 01:59:12;;;;;;;28.15;17.07;;;;;;;7.48;100.00;100317.59;1710517;83;21024;-76
2022/11/11 02:01:59;;;;;;;26.23;15.72;;;;;;;7.51;100.00;100318.37;1712489;83;21024;-76
2022/11/11 02:07:58;;;;;;;28.75;15.50;;;;;;;7.52;100.00;100330.12;1694176;83;20905;-77
2022/11/11 02:10:44;;;;;;;28.60;15.43;;;;;;;7.54;100.00;100333.39;1704050;83;21512;-77
2022/11/11 02:16:49;;;;;;;26.10;16.57;;;;;;;7.54;100.00;100334.76;1711774;82;21197;-78
2022/11/11 02:19:47;;;;;;;27.67;16.65;;;;;;;7.59;100.00;100329.28;1710422;83;20971;-76
2022/11/11 02:22:55;;;;;;;21.70;14.25;;;;;;;7.59;100.00;100334.75;1690447;83;20980;-77
2022/11/11 02:25:45;;;;;;;24.55;15.48;;;;;;;7.59;100.00;100327.92;1695003;83;20927;-78
2022/11/11 02:28:35;;;;;;;27.85;16.35;;;;;;;7.62;100.00;100326.81;1700747;83;20955;-77
2022/11/11 02:31:27;;;;;;;24.85;14.70;;;;;;;7.63;100.00;100330.37;1711701;82;20991;-76
2022/11/11 02:34:17;;;;;;;24.77;15.53;;;;;;;7.60;100.00;100331.74;1702264;83;21055;-76
2022/11/11 02:37:07;;;;;;;23.70;15.10;;;;;;;7.63;100.00;100338.57;1706775;82;21264;-76
2022/11/11 02:39:55;;;;;;;26.37;16.27;;;;;;;7.64;100.00;100340.20;1710057;83;20963;-76
2022/11/11 02:42:46;;;;;;;24.77;15.13;;;;;;;7.65;100.00;100343.76;1697244;83;21413;-77
2022/11/11 02:45:34;;;;;;;23.65;14.30;;;;;;;7.65;100.00;100348.67;1707168;83;21525;-76
2022/11/11 02:48:19;;;;;;;24.80;15.18;;;;;;;7.70;100.00;100342.37;1712660;82;21015;-76
2022/11/11 02:51:10;;;;;;;25.20;15.40;;;;;;;7.71;100.00;100341.28;1710753;83;21119;-76
2022/11/11 02:54:01;;;;;;;28.42;16.75;;;;;;;7.71;100.00;100333.91;1709304;83;20969;-77
2022/11/11 02:57:05;;;;;;;24.52;15.25;;;;;;;7.71;100.00;100335.27;1692598;83;21122;-77
2022/11/11 02:59:54;;;;;;;20.48;13.90;;;;;;;7.70;100.00;100328.17;1704348;82;20996;-76
2022/11/11 03:02:45;;;;;;;23.98;14.18;;;;;;;7.71;100.00;100335.27;1709673;83;21464;-77
2022/11/11 03:05:32;;;;;;;27.55;15.32;;;;;;;7.76;100.00;100338.53;1707951;83;21327;-77
2022/11/11 03:08:21;;;;;;;25.17;14.53;;;;;;;7.75;100.00;100344.55;1710849;83;20975;-77
2022/11/11 03:11:12;;;;;;;30.35;15.85;;;;;;;7.75;100.00;100343.19;1693702;83;20924;-77
2022/11/11 03:14:00;;;;;;;24.20;14.95;;;;;;;7.76;100.00;100353.02;1711437;83;21966;-77
2022/11/11 03:21:03;;;;;;;28.38;15.75;;;;;;;7.79;100.00;100342.08;1710692;82;21569;-77
2022/11/11 03:22:46;;;;;;;22.85;14.87;;;;;;;7.81;100.00;100346.17;1709173;83;21035;-76
2022/11/11 03:25:41;;;;;;;27.05;16.23;;;;;;;7.84;100.00;100345.63;1696101;83;20972;-76
2022/11/11 03:28:32;;;;;;;25.15;15.03;;;;;;;7.83;100.00;100351.36;1707081;82;21432;-76
2022/11/11 03:31:25;;;;;;;22.93;14.73;;;;;;;7.81;100.00;100351.64;1693646;83;21571;-77
2022/11/11 03:34:18;;;;;;;22.93;14.50;;;;;;;7.83;100.00;100351.36;1659189;85;21561;-76
2022/11/11 03:40:16;;;;;;;26.27;15.23;;;;;;;7.80;100.00;100359.58;1708892;82;20921;-77
2022/11/11 03:43:03;;;;;;;25.15;14.47;;;;;;;7.83;100.00;100363.66;1710726;83;20888;-77
2022/11/11 03:45:53;;;;;;;24.15;13.95;;;;;;;7.84;100.00;100357.10;1705358;83;20956;-77
2022/11/11 03:48:41;;;;;;;26.07;14.38;;;;;;;7.83;100.00;100357.65;1722035;82;21253;-78
2022/11/11 03:51:30;;;;;;;21.80;12.88;;;;;;;7.88;100.00;100363.11;1718396;82;21106;-76
2022/11/11 03:54:20;;;;;;;25.23;14.28;;;;;;;7.88;100.00;100367.75;1658450;84;21091;-77
2022/11/11 04:00:13;;;;;;;22.87;13.98;;;;;;;7.85;100.00;100365.03;1713914;83;21054;-75
2022/11/11 04:12:24;;;;;;;21.73;13.68;;;;;;;7.87;100.00;100370.22;1731874;82;21143;-75
2022/11/11 04:21:41;;;;;;;24.25;14.20;;;;;;;7.87;100.00;100387.44;1672561;85;21168;-75
2022/11/11 04:27:26;;;;;;;23.98;13.90;;;;;;;7.86;100.00;100370.77;1672500;85;21428;-76
2022/11/11 04:30:15;;;;;;;29.45;14.63;;;;;;;7.88;100.00;100381.42;1651254;85;20869;-75
2022/11/11 04:33:03;;;;;;;26.65;15.55;;;;;;;7.86;100.00;100383.61;1651358;85;20917;-73
2022/11/11 04:35:55;;;;;;;30.52;15.80;;;;;;;7.86;100.00;100387.16;1672408;85;20938;-75
2022/11/11 04:41:47;;;;;;;27.27;15.15;;;;;;;7.88;100.00;100394.55;1672539;85;21637;-75
2022/11/11 04:47:40;;;;;;;24.67;15.05;;;;;;;7.88;100.00;100400.01;1672522;85;21814;-76
2022/11/11 04:50:29;;;;;;;27.95;16.42;;;;;;;7.89;100.00;100403.56;1668516;85;20909;-75
2022/11/11 04:53:14;;;;;;;27.42;16.20;;;;;;;7.89;100.00;100405.75;1667306;83;20904;-76
2022/11/11 04:59:19;;;;;;;35.17;17.27;;;;;;;7.92;100.00;100398.91;1643494;85;21972;-77
2022/11/11 05:05:09;;;;;;;35.73;18.45;;;;;;;7.91;100.00;100409.57;1728505;82;21047;-76
2022/11/11 05:11:02;;;;;;;31.95;16.27;;;;;;;7.86;100.00;100414.50;1651140;85;20972;-76
2022/11/11 05:23:13;;;;;;;42.23;20.15;;;;;;;7.88;100.00;100436.92;1660091;84;20983;-74
2022/11/11 05:25:57;;;;;;;35.50;19.52;;;;;;;7.89;100.00;100437.19;1667207;84;21068;-74
2022/11/11 05:28:43;;;;;;;41.35;21.42;;;;;;;7.90;100.00;100453.86;1716204;83;20907;-74
2022/11/11 05:31:37;;;;;;;35.23;18.90;;;;;;;7.92;100.00;100451.67;1713715;83;21980;-74
2022/11/11 05:34:22;;;;;;;31.60;18.37;;;;;;;7.94;100.00;100465.07;1712906;83;20872;-74
2022/11/11 05:37:08;;;;;;;39.35;20.72;;;;;;;7.92;100.00;100459.88;1708717;83;21165;-73
2022/11/11 05:39:54;;;;;;;36.95;20.43;;;;;;;7.95;100.00;100466.70;1718591;82;21051;-75
2022/11/11 05:42:44;;;;;;;35.88;20.60;;;;;;;8.00;100.00;100472.72;1713494;82;21071;-73
2022/11/11 05:45:29;;;;;;;40.55;21.33;;;;;;;7.99;100.00;100482.02;1718233;82;21162;-73
2022/11/11 05:48:19;;;;;;;41.45;21.35;;;;;;;8.00;100.00;100482.28;1720770;82;21067;-75
2022/11/11 05:51:04;;;;;;;40.65;20.70;;;;;;;8.03;100.00;100484.47;1716098;82;21015;-74
2022/11/11 05:53:51;;;;;;;51.00;22.60;;;;;;;8.03;100.00;100483.92;1713355;82;21098;-74
2022/11/11 05:56:40;;;;;;;42.98;22.50;;;;;;;8.02;100.00;100487.75;1622095;86;21055;-75
2022/11/11 05:59:28;;;;;;;37.10;20.30;;;;;;;8.03;100.00;100492.67;1637445;86;21090;-75
2022/11/11 06:02:15;;;;;;;39.48;21.30;;;;;;;8.03;100.00;100497.59;1636944;86;21436;-74
2022/11/11 06:05:06;;;;;;;44.15;20.95;;;;;;;8.06;100.00;100510.72;1612893;87;21009;-75
2022/11/11 06:08:01;;;;;;;43.40;21.27;;;;;;;8.07;100.00;100510.17;1660547;84;21604;-74
2022/11/11 06:10:52;;;;;;;36.20;19.40;;;;;;;8.08;100.00;100511.27;1719894;81;20944;-75
2022/11/11 06:13:38;;;;;;;42.35;20.35;;;;;;;8.08;100.00;100515.91;1730314;82;21132;-75
2022/11/11 06:16:24;;;;;;;42.93;23.15;;;;;;;8.06;100.00;100524.94;1724971;82;20895;-74
2022/11/11 06:19:14;;;;;;;45.60;22.40;;;;;;;8.09;100.00;100525.17;1723853;82;20932;-75
2022/11/11 06:22:02;;;;;;;37.25;19.42;;;;;;;8.08;100.00;100533.14;1646627;85;20936;-75
2022/11/11 06:26:11;;;;;;;50.30;23.55;;;;;;;8.07;100.00;100532.05;1641112;84;21133;-74
2022/11/11 06:27:46;;;;;;;45.80;24.15;;;;;;;8.09;100.00;100543.50;1646819;85;21138;-74
2022/11/11 06:30:38;;;;;;;49.98;24.85;;;;;;;8.11;100.00;100544.05;1651171;85;21020;-75
2022/11/11 06:33:25;;;;;;;44.88;20.90;;;;;;;8.11;100.00;100550.34;1672625;84;20943;-74
2022/11/11 06:36:13;;;;;;;40.33;21.70;;;;;;;8.10;100.00;100551.98;1673017;84;21018;-78
2022/11/11 06:39:00;;;;;;;49.20;24.37;;;;;;;8.09;100.00;100557.99;1671999;84;20968;-74
2022/11/11 06:41:50;;;;;;;39.23;21.15;;;;;;;8.10;100.00;100557.45;1650321;85;21666;-75
2022/11/11 06:44:40;;;;;;;55.75;23.73;;;;;;;8.11;100.00;100555.80;1643010;86;20994;-74
2022/11/11 06:47:29;;;;;;;41.05;22.37;;;;;;;8.13;100.00;100554.16;1648290;86;21087;-83
2022/11/11 06:50:16;;;;;;;45.85;22.55;;;;;;;8.14;100.00;100561.27;1629428;85;21051;-84
2022/11/11 06:53:14;;;;;;;47.03;21.30;;;;;;;8.13;100.00;100562.37;1661199;84;21060;-84
2022/11/11 06:56:02;;;;;;;45.43;22.60;;;;;;;8.13;100.00;100565.92;1659832;85;21288;-85
2022/11/11 06:58:50;;;;;;;52.95;26.33;;;;;;;8.14;100.00;100563.46;1648434;85;21930;-83
2022/11/11 07:01:44;;;;;;;47.08;24.37;;;;;;;8.17;100.00;100561.55;1652961;85;21429;-83
2022/11/11 07:04:28;;;;;;;54.67;27.20;;;;;;;8.20;100.00;100568.38;1657772;85;21595;-84
2022/11/11 07:07:16;;;;;;;51.65;25.90;;;;;;;8.21;100.00;100569.48;1664114;84;21081;-83
2022/11/11 07:10:10;;;;;;;48.92;25.57;;;;;;;8.24;100.00;100566.73;1654193;84;21806;-85
2022/11/11 07:12:56;;;;;;;47.78;26.27;;;;;;;8.28;100.00;100570.56;1654099;84;21136;-75
2022/11/11 07:15:44;;;;;;;48.48;25.12;;;;;;;8.32;100.00;100574.94;1669909;85;21018;-74
2022/11/11 07:18:36;;;;;;;47.43;25.25;;;;;;;8.34;100.00;100579.61;1667788;85;20990;-75
2022/11/11 07:21:23;;;;;;;49.93;25.12;;;;;;;8.39;100.00;100579.61;1653768;84;21114;-73
2022/11/11 07:24:13;;;;;;;44.23;23.65;;;;;;;8.40;100.00;100576.59;1661825;85;21535;-72
2022/11/11 07:26:59;;;;;;;46.60;24.30;;;;;;;8.42;100.00;100574.41;1659530;85;21080;-72
2022/11/11 07:29:50;;;;;;;44.83;22.02;;;;;;;8.46;100.00;100580.97;1667242;84;40379;-72
2022/11/11 07:32:40;;;;;;;47.65;24.45;;;;;;;8.49;100.00;100584.52;1640720;86;20880;-71
2022/11/11 07:35:31;;;;;;;40.70;23.52;;;;;;;8.50;100.00;100586.70;1651600;84;20885;-72
2022/11/11 07:38:21;;;;;;;46.10;24.20;;;;;;;8.53;100.00;100586.16;1680620;84;21265;-71
2022/11/11 07:41:07;;;;;;;41.85;23.05;;;;;;;8.57;100.00;100589.98;1681963;84;20940;-72
2022/11/11 07:43:52;;;;;;;43.58;21.65;;;;;;;8.62;100.00;100591.89;1682672;84;20992;-71
2022/11/11 07:46:39;;;;;;;44.70;22.77;;;;;;;8.65;100.00;100592.70;1687095;82;21004;-72
2022/11/11 07:49:25;;;;;;;36.68;20.23;;;;;;;8.69;100.00;100604.16;1709135;82;20884;-72
2022/11/11 07:52:14;;;;;;;36.53;20.60;;;;;;;8.71;100.00;100601.96;1671748;85;21162;-72
2022/11/11 07:55:07;;;;;;;39.38;21.68;;;;;;;8.75;100.00;100605.78;1728812;82;21557;-72
2022/11/11 07:57:52;;;;;;;44.03;23.07;;;;;;;8.79;100.00;100607.41;1723650;82;21526;-72
2022/11/11 08:00:38;;;;;;;35.30;21.15;;;;;;;8.82;100.00;100608.23;1684652;84;21133;-72
2022/11/11 08:03:34;;;;;;;38.05;20.20;;;;;;;8.81;100.00;100608.78;1658369;84;21002;-74
2022/11/11 08:06:21;;;;;;;38.65;21.82;;;;;;;8.82;100.00;100606.31;1722094;82;21238;-73
2022/11/11 08:09:08;;;;;;;43.23;21.82;;;;;;;8.84;100.00;100615.62;1727510;82;21412;-75
2022/11/11 08:14:58;;;;;;;34.92;20.60;;;;;;;8.85;100.00;100616.70;1691215;83;21138;-72
2022/11/11 08:17:45;;;;;;;40.43;20.17;;;;;;;8.85;100.00;100617.26;1711437;82;20995;-73
2022/11/11 08:20:32;;;;;;;39.42;20.77;;;;;;;8.85;100.00;100616.70;1708194;82;21810;-74
2022/11/11 08:23:31;;;;;;;37.10;21.55;;;;;;;8.89;100.00;100614.23;1704796;82;20991;-76
2022/11/11 08:26:11;;;;;;;37.53;20.05;;;;;;;8.93;100.00;100623.53;1721787;82;20990;-72
2022/11/11 08:28:59;;;;;;;37.00;20.40;;;;;;;8.98;100.00;100621.33;1722846;82;20979;-74
2022/11/11 08:31:49;;;;;;;35.68;19.65;;;;;;;9.01;100.00;100620.77;1670698;84;21002;-73
2022/11/11 08:34:43;;;;;;;44.67;23.20;;;;;;;9.05;100.00;100619.94;1650240;85;21506;-74
2022/11/11 08:37:31;;;;;;;33.70;20.02;;;;;;;9.11;100.00;100618.81;1668007;85;21008;-73
2022/11/11 08:40:20;;;;;;;37.30;21.45;;;;;;;9.12;100.00;100623.20;1675610;85;21015;-72
2022/11/11 08:43:07;;;;;;;32.25;18.60;;;;;;;9.13;100.00;100622.65;1671734;85;20953;-72
2022/11/11 08:45:59;;;;;;;36.00;19.77;;;;;;;9.12;100.00;100618.27;1646804;85;21601;-75
2022/11/11 08:48:48;;;;;;;31.52;18.27;;;;;;;9.12;100.00;100621.83;1658602;84;21212;-77
2022/11/11 08:51:37;;;;;;;35.80;18.82;;;;;;;9.16;100.00;100615.24;1632169;86;21527;-76
2022/11/11 08:54:25;;;;;;;33.02;18.98;;;;;;;9.22;100.00;100617.68;1651087;84;21024;-76
2022/11/11 08:57:16;;;;;;;37.53;20.57;;;;;;;9.29;100.00;100617.34;1658198;85;20961;-75
2022/11/11 09:00:06;;;;;;;37.93;19.55;;;;;;;9.37;100.00;100614.02;1648413;86;20968;-74
2022/11/11 09:02:58;;;;;;;44.03;19.32;;;;;;;9.47;100.00;100618.08;1639931;85;21576;-75
2022/11/11 09:05:46;;;;;;;;;;;;;;;9.55;100.00;100616.67;1633852;86;20946;-76
2022/11/11 09:08:33;;;;;;;36.77;20.48;;;;;;;9.63;100.00;100619.37;1684952;84;20096;-75
2022/11/11 09:11:25;;;;;;;34.15;19.90;;;;;;;9.70;100.00;100616.58;1688564;84;20920;-74
2022/11/11 09:14:10;;;;;;;33.40;19.25;;;;;;;9.82;100.00;100619.77;1680192;84;20948;-75
2022/11/11 09:17:00;;;;;;;37.93;19.50;;;;;;;9.98;100.00;100616.91;1675462;83;21495;-75
2022/11/11 09:19:46;;;;;;;32.73;18.02;;;;;;;10.13;100.00;100623.11;1692448;84;21430;-75
2022/11/11 09:22:38;;;;;;;29.42;18.27;;;;;;;10.19;100.00;100619.77;1683715;85;21494;-75
2022/11/11 09:25:26;;;;;;;29.12;16.45;;;;;;;10.24;100.00;100619.77;1709836;82;21486;-72
2022/11/11 09:28:17;;;;;;;27.70;16.23;;;;;;;10.24;100.00;100615.09;1677510;84;20991;-73
2022/11/11 09:31:04;;;;;;;24.60;14.77;;;;;;;10.30;100.00;100613.13;1667883;84;21553;-74
2022/11/11 09:33:55;;;;;;;27.98;14.83;;;;;;;10.49;100.00;100618.14;1698078;84;20940;-74
2022/11/11 09:36:41;;;;;;;28.70;16.70;;;;;;;10.65;100.00;100603.70;1701172;83;21546;-76
2022/11/11 09:39:32;;;;;;;25.95;15.00;;;;;;;10.76;100.00;100610.73;1702915;84;20928;-74
2022/11/11 09:42:42;;;;;;;21.17;13.05;;;;;;;10.78;100.00;100609.06;1677507;84;20943;-74
2022/11/11 09:45:57;;;;;;;23.25;13.20;;;;;;;10.74;100.00;100616.25;1620806;86;21228;-76
2022/11/11 09:49:08;;;;;;;24.55;12.88;;;;;;;10.65;100.00;100611.94;1638078;85;21043;-73
2022/11/11 09:52:02;;;;;;;17.77;11.48;;;;;;;10.70;100.00;100615.19;1638665;86;21071;-72
2022/11/11 09:54:58;;;;;;;22.45;12.28;;;;;;;10.73;100.00;100603.63;1636216;86;21538;-73
2022/11/11 09:57:58;;;;;;;21.57;12.75;;;;;;;10.72;100.00;100609.67;1653845;84;21152;-78
2022/11/11 10:00:46;;;;;;;23.02;13.03;;;;;;;10.65;100.00;100614.69;1644856;84;21189;-80
2022/11/11 10:03:38;;;;;;;20.70;12.63;;;;;;;10.58;100.00;100613.66;1639144;84;21518;-78
2022/11/11 10:06:37;;;;;;;19.45;11.70;;;;;;;10.52;100.00;100601.64;1645902;84;21079;-78
2022/11/11 10:09:29;;;;;;;22.80;12.00;;;;;;;10.44;100.00;100609.13;1643325;84;21145;-80
2022/11/11 10:12:17;;;;;;;;;;;;;;;10.39;100.00;100608.65;1646323;86;21019;-78
2022/11/11 10:15:04;;;;;;;22.48;12.33;;;;;;;10.33;100.00;100610.36;1643925;85;21691;-76
2022/11/11 10:18:13;;;;;;;21.68;11.38;;;;;;;10.29;100.00;100608.74;1646717;84;21026;-78
2022/11/11 10:20:58;;;;;;;19.52;12.25;;;;;;;10.23;100.00;100609.34;1661487;86;20905;-77
2022/11/11 10:23:46;;;;;;;25.35;13.15;;;;;;;10.22;100.00;100608.25;1655648;86;21163;-77
2022/11/11 10:26:41;;;;;;;21.20;13.00;;;;;;;10.28;100.00;100609.84;1642845;85;20903;-76
2022/11/11 10:29:30;;;;;;;22.30;12.63;;;;;;;10.37;100.00;100613.61;1644054;84;21571;-77
2022/11/11 10:32:21;;;;;;;22.20;12.93;;;;;;;10.51;100.00;100602.75;1652487;84;21002;-77
2022/11/11 10:35:23;;;;;;;23.42;12.85;;;;;;;10.65;100.00;100589.98;1656245;83;20928;-74
2022/11/11 10:38:15;;;;;;;;;;;;;;;11.34;100.00;100583.08;1651130;85;21032;-74
2022/11/11 10:41:17;;;;;;;24.67;11.93;;;;;;;12.28;100.00;100581.61;1650385;85;20122;-76
2022/11/11 10:44:22;;;;;;;20.45;11.43;;;;;;;12.42;100.00;100581.09;1640835;85;21189;-73
2022/11/11 10:47:28;;;;;;;18.80;10.98;;;;;;;12.42;100.00;100581.09;1634363;85;21071;-71
2022/11/11 10:50:21;;;;;;;19.42;11.10;;;;;;;12.20;100.00;100587.25;1645772;86;20940;-73
2022/11/11 10:53:36;;;;;;;20.82;11.65;;;;;;;11.92;100.00;100588.30;1640383;86;20959;-73
2022/11/11 10:56:44;;;;;;;20.27;10.72;;;;;;;11.74;100.00;100582.22;1649410;86;21037;-74
2022/11/11 10:59:50;;;;;;;22.67;11.73;;;;;;;11.58;100.00;100584.37;1623516;86;21805;-73
2022/11/11 11:03:03;;;;;;;16.10;10.00;;;;;;;11.39;100.00;100583.02;1645097;84;21006;-74
2022/11/11 11:05:53;;;;;;;17.67;9.70;;;;;;;11.29;100.00;100581.77;1646115;86;21005;-74
2022/11/11 11:08:53;;;;;;;18.65;10.95;;;;;;;11.25;100.00;100583.47;1643689;85;21165;-74
2022/11/11 11:11:52;;;;;;;16.12;10.00;;;;;;;11.30;100.00;100585.34;1646889;85;21050;-74
2022/11/11 11:14:45;;;;;;;20.08;10.72;;;;;;;11.36;100.00;100573.98;1696557;84;21171;-74
2022/11/11 11:17:43;;;;;;;19.62;10.75;;;;;;;11.43;100.00;100573.06;1646308;86;28173;-74
2022/11/11 11:20:28;;;;;;;22.25;11.15;;;;;;;11.46;100.00;100568.90;1645078;87;21040;-74
2022/11/11 11:23:13;;;;;;;20.70;9.88;;;;;;;11.50;100.00;100569.94;1645030;87;21016;-74
2022/11/11 11:25:58;;;;;;;16.52;10.05;;;;;;;11.49;100.00;100565.55;1627387;87;20909;-74
2022/11/11 11:28:55;;;;;;;19.42;10.10;;;;;;;11.40;100.00;100569.53;1645083;87;21273;-74
2022/11/11 11:31:41;;;;;;;20.00;10.72;;;;;;;11.30;100.00;100559.22;1645012;87;21004;-76
2022/11/11 11:34:46;;;;;;;14.80;9.58;;;;;;;11.22;100.00;100567.57;1644963;87;21011;-75
2022/11/11 11:37:31;;;;;;;17.10;9.43;;;;;;;11.12;100.00;100569.89;1653945;85;21026;-74
2022/11/11 11:40:16;;;;;;;21.57;11.40;;;;;;;11.10;100.00;100563.88;1644796;87;20992;-74
2022/11/11 11:43:01;;;;;;;22.13;11.65;;;;;;;11.10;100.00;100565.25;1644747;87;21154;-75
2022/11/11 11:45:58;;;;;;;19.95;10.60;;;;;;;11.05;100.00;100575.48;1625142;87;20905;-74
2022/11/11 11:49:10;;;;;;;17.32;9.85;;;;;;;11.01;100.00;100582.13;1684551;83;21038;-74
2022/11/11 11:52:51;;;;;;;16.60;9.40;;;;;;;10.97;100.00;100579.73;1718744;82;20932;-74
2022/11/11 11:55:39;;;;;;;17.30;9.83;;;;;;;10.90;100.00;100585.58;1704213;83;21036;-74
2022/11/11 11:58:50;;;;;;;23.20;11.25;;;;;;;10.86;100.00;100587.27;1706244;83;21911;-74
2022/11/11 12:02:12;;;;;;;23.90;11.65;;;;;;;10.90;100.00;100582.01;1710265;83;20896;-74
2022/11/11 12:05:11;;;;;;;21.68;11.12;;;;;;;11.05;100.00;100584.55;1705442;83;21455;-79
2022/11/11 12:08:32;;;;;;;15.78;9.60;;;;;;;11.46;100.00;100586.22;1673704;84;20960;-74
2022/11/11 12:11:47;;;;;;;17.85;10.10;;;;;;;11.89;100.00;100580.08;1665764;84;20901;-76
2022/11/11 12:14:59;;;;;;;14.50;9.13;;;;;;;12.25;100.00;100580.84;1661710;84;21405;-77
2022/11/11 12:18:09;;;;;;;;;;;;;;;12.33;100.00;100581.53;1606842;87;21112;-76
2022/11/11 12:21:13;;;;;;;14.75;8.35;;;;;;;12.79;100.00;100575.97;1732526;80;20114;-77
2022/11/11 12:24:16;;;;;;;11.63;7.62;;;;;;;13.24;100.00;100579.51;1726753;81;20999;-76
2022/11/11 12:27:40;;;;;;;10.90;7.80;;;;;;;13.08;98.54;100575.66;1737607;81;21020;-78
2022/11/11 12:30:29;;;;;;;15.60;7.37;;;;;;;12.72;99.80;100583.00;1725021;80;21238;-85
2022/11/11 12:33:41;;;;;;;15.30;7.92;;;;;;;12.40;100.00;100584.70;1695509;80;21023;-73
2022/11/11 12:36:38;;;;;;;12.23;7.53;;;;;;;12.15;100.00;100585.14;1714314;81;21109;-80
2022/11/11 12:39:37;;;;;;;12.50;7.35;;;;;;;11.82;100.00;100587.89;1702087;82;21040;-74
2022/11/11 12:42:46;;;;;;;12.43;7.17;;;;;;;11.55;100.00;100589.12;1721021;82;21078;-75
2022/11/11 12:45:49;;;;;;;7.85;5.22;;;;;;;11.37;100.00;100602.29;1716263;82;21256;-82
2022/11/11 12:48:55;;;;;;;9.30;4.58;;;;;;;11.15;100.00;100598.16;1739863;80;21447;-81
2022/11/11 12:52:04;;;;;;;13.45;5.17;;;;;;;10.89;100.00;100610.59;1686530;83;21110;-75
2022/11/11 12:55:19;;;;;;;12.35;5.30;;;;;;;10.65;100.00;100611.94;1741730;82;21009;-72
2022/11/11 12:58:25;;;;;;;9.65;6.37;;;;;;;10.47;100.00;100612.11;1691045;83;21015;-75
2022/11/11 13:01:30;;;;;;;10.40;6.10;;;;;;;10.29;100.00;100616.16;1739675;81;21483;-75
2022/11/11 13:04:34;;;;;;;11.55;5.20;;;;;;;10.16;100.00;100621.72;1745273;81;21203;-73
2022/11/11 13:07:37;;;;;;;9.75;5.92;;;;;;;10.05;100.00;100620.16;1740191;81;21511;-74
2022/11/11 13:11:09;;;;;;;10.88;5.05;;;;;;;9.96;100.00;100623.23;1700894;83;20972;-76
2022/11/11 13:14:12;;;;;;;8.35;5.87;;;;;;;9.88;100.00;100626.85;1695405;83;21409;-76
2022/11/11 13:16:59;;;;;;;14.07;8.00;;;;;;;9.83;100.00;100632.92;1696206;83;22052;-73
2022/11/11 13:19:51;;;;;;;13.65;8.38;;;;;;;9.80;100.00;100636.27;1634338;86;21637;-79
2022/11/11 13:22:37;;;;;;;15.45;9.23;;;;;;;9.79;100.00;100642.30;1649671;85;20940;-74
2022/11/11 13:25:26;;;;;;;17.48;9.75;;;;;;;9.81;100.00;100640.09;1679942;84;21042;-76
2022/11/11 13:28:27;;;;;;;23.60;11.03;;;;;;;9.83;100.00;100649.38;1678146;84;21019;-76
2022/11/11 13:31:35;;;;;;;20.43;11.18;;;;;;;9.83;100.00;100652.12;1671507;84;21645;-76
2022/11/11 13:34:20;;;;;;;18.90;11.35;;;;;;;9.80;100.00;100654.09;1718087;82;21726;-77
2022/11/11 13:37:08;;;;;;;22.25;12.50;;;;;;;9.77;100.00;100643.69;1716821;83;21431;-76
2022/11/11 13:40:06;;;;;;;19.10;11.38;;;;;;;9.78;100.00;100648.89;1719939;82;22007;-76
2022/11/11 13:42:51;;;;;;;18.32;11.05;;;;;;;9.78;100.00;100646.15;1720897;82;21010;-86
2022/11/11 13:45:40;;;;;;;20.08;11.50;;;;;;;9.80;100.00;100654.09;1716483;82;21256;-80
2022/11/11 13:48:37;;;;;;;18.92;10.70;;;;;;;9.78;100.00;100660.41;1723536;82;21160;-83
2022/11/11 13:51:39;;;;;;;21.57;9.30;;;;;;;9.75;100.00;100661.80;1728570;82;21479;-85
2022/11/11 13:54:36;;;;;;;14.55;8.75;;;;;;;9.74;100.00;100664.27;1664633;83;21184;-82
2022/11/11 13:57:30;;;;;;;14.70;8.15;;;;;;;9.74;100.00;100670.30;1727235;82;21000;-89
2022/11/11 14:00:23;;;;;;;13.08;7.60;;;;;;;9.73;100.00;100672.77;1726086;82;21102;-92
2022/11/11 14:03:26;;;;;;;14.13;8.85;;;;;;;9.70;100.00;100676.91;1719911;82;21432;-84
2022/11/11 14:06:20;;;;;;;20.88;9.55;;;;;;;9.68;100.00;100681.85;1731016;82;20936;-78
2022/11/11 14:09:06;;;;;;;17.90;8.85;;;;;;;9.63;100.00;100679.13;1731160;82;20987;-79
2022/11/11 14:11:55;;;;;;;19.85;10.25;;;;;;;9.58;100.00;100680.53;1693307;83;21617;-76
2022/11/11 14:14:45;;;;;;;19.77;12.13;;;;;;;9.55;100.00;100690.12;1649204;85;20991;-73
2022/11/11 14:17:31;;;;;;;23.62;13.48;;;;;;;9.53;100.00;100696.45;1671970;84;21085;-72
2022/11/11 14:20:41;;;;;;;21.97;12.10;;;;;;;9.52;100.00;100689.88;1670283;85;21458;-73
2022/11/11 14:23:42;;;;;;;22.00;10.98;;;;;;;9.50;100.00;100690.70;1665578;84;21046;-74
2022/11/11 14:26:27;;;;;;;23.38;12.07;;;;;;;9.45;100.00;100689.35;1659443;85;21035;-72
2022/11/11 14:29:18;;;;;;;15.38;9.83;;;;;;;9.40;100.00;100685.27;1660168;84;21262;-70
2022/11/11 14:32:41;;;;;;;18.15;9.53;;;;;;;9.36;100.00;100690.48;1677347;84;21060;-74